createdAt,value
2022-09-23T00:02:16.580Z,101837.66
2022-09-23T00:04:42.937Z,101830.31
2022-09-23T00:07:09.383Z,101823.00
2022-09-23T00:09:35.753Z,101837.19
2022-09-23T00:12:05.686Z,101837.34
2022-09-23T00:14:34.521Z,101823.78
2022-09-23T00:17:00.964Z,101830.16
2022-09-23T00:19:27.301Z,101833.91
2022-09-23T00:21:53.599Z,101827.56
2022-09-23T00:24:19.898Z,101828.34
2022-09-23T00:26:46.190Z,101840.59
2022-09-23T00:29:12.533Z,101830.47
2022-09-23T00:31:38.829Z,101810.75
2022-09-23T00:34:05.114Z,101822.97
2022-09-23T00:36:31.482Z,101807.47
2022-09-23T00:38:58.108Z,101823.44
2022-09-23T00:41:25.561Z,101812.34
2022-09-23T00:43:54.920Z,101829.13
2022-09-23T00:46:39.870Z,101819.84
2022-09-23T00:49:12.381Z,101814.66
2022-09-23T00:51:44.268Z,101823.44
2022-09-23T00:54:11.266Z,101801.41
2022-09-23T00:56:39.503Z,101815.44
2022-09-23T00:59:09.000Z,101811.22
2022-09-23T01:01:36.405Z,101813.84
2022-09-23T01:04:03.546Z,101799.50
2022-09-23T01:06:30.184Z,101813.34
2022-09-23T01:08:56.520Z,101809.56
2022-09-23T01:11:47.849Z,101794.56
2022-09-23T01:14:29.652Z,101803.34
2022-09-23T01:17:16.234Z,101786.09
2022-09-23T01:20:04.215Z,101800.44
2022-09-23T01:22:43.287Z,101802.38
2022-09-23T01:25:59.413Z,101787.69
2022-09-23T01:28:59.905Z,101792.09
2022-09-23T01:31:45.890Z,101782.31
2022-09-23T01:34:21.732Z,101789.19
2022-09-23T01:37:12.954Z,101783.47
2022-09-23T01:39:49.278Z,101758.50
2022-09-23T01:42:26.923Z,101758.97
2022-09-23T01:45:00.438Z,101764.69
2022-09-23T01:47:58.842Z,101769.56
2022-09-23T01:50:31.982Z,101777.06
2022-09-23T01:53:05.094Z,101763.38
2022-09-23T01:55:38.090Z,101769.88
2022-09-23T01:58:11.985Z,101766.63
2022-09-23T02:00:44.285Z,101760.44
2022-09-23T02:03:14.789Z,101766.63
2022-09-23T02:05:49.368Z,101767.91
2022-09-23T02:08:24.398Z,101768.06
2022-09-23T02:10:54.969Z,101768.38
2022-09-23T02:13:39.793Z,101756.31
2022-09-23T02:16:14.965Z,101749.63
2022-09-23T02:18:51.790Z,101753.53
2022-09-23T02:21:21.578Z,101753.03
2022-09-23T02:24:02.002Z,101752.53
2022-09-23T02:26:32.554Z,101746.97
2022-09-23T02:29:20.237Z,101733.75
2022-09-23T02:32:00.665Z,101742.56
2022-09-23T02:34:45.058Z,101741.44
2022-09-23T02:37:25.468Z,101739.78
2022-09-23T02:40:03.870Z,101740.09
2022-09-23T02:43:08.618Z,101739.59
2022-09-23T02:45:35.121Z,101742.06
2022-09-23T02:48:09.038Z,101728.53
2022-09-23T02:50:37.035Z,101716.44
2022-09-23T02:53:03.660Z,101723.47
2022-09-23T02:55:30.453Z,101711.06
2022-09-23T02:57:57.653Z,101716.13
2022-09-23T03:00:24.588Z,101691.69
2022-09-23T03:03:02.742Z,101716.31
2022-09-23T03:05:33.755Z,101714.69
2022-09-23T03:08:37.458Z,101719.25
2022-09-23T03:11:11.714Z,101697.41
2022-09-23T03:13:52.163Z,101693.47
2022-09-23T03:16:29.630Z,101686.00
2022-09-23T03:19:25.130Z,101701.81
2022-09-23T03:22:20.617Z,101700.00
2022-09-23T03:24:53.294Z,101703.41
2022-09-23T03:27:23.873Z,101683.41
2022-09-23T03:29:52.831Z,101690.56
2022-09-23T03:32:22.825Z,101691.38
2022-09-23T03:34:53.481Z,101700.16
2022-09-23T03:37:47.756Z,101691.50
2022-09-23T03:40:26.184Z,101697.88
2022-09-23T03:42:54.922Z,101691.88
2022-09-23T03:45:26.104Z,101692.81
2022-09-23T03:47:52.515Z,101690.22
2022-09-23T03:50:19.107Z,101685.34
2022-09-23T03:52:45.413Z,101672.78
2022-09-23T03:55:11.831Z,101677.16
2022-09-23T03:57:38.443Z,101676.88
2022-09-23T04:00:06.604Z,101682.06
2022-09-23T04:02:32.982Z,101659.56
2022-09-23T04:04:59.386Z,101674.28
2022-09-23T04:07:25.685Z,101658.59
2022-09-23T04:09:52.044Z,101673.59
2022-09-23T04:12:18.393Z,101662.38
2022-09-23T04:14:45.204Z,101656.97
2022-09-23T04:17:12.268Z,101655.03
2022-09-23T04:19:38.981Z,101665.63
2022-09-23T04:22:06.053Z,101660.28
2022-09-23T04:24:32.546Z,101650.50
2022-09-23T04:26:58.970Z,101664.53
2022-09-23T04:29:25.994Z,101665.19
2022-09-23T04:31:52.848Z,101665.47
2022-09-23T04:34:20.250Z,101668.06
2022-09-23T04:36:47.827Z,101667.28
2022-09-23T04:39:15.992Z,101674.94
2022-09-23T04:41:43.413Z,101673.66
2022-09-23T04:44:11.962Z,101665.84
2022-09-23T04:46:39.389Z,101660.94
2022-09-23T04:49:07.125Z,101674.78
2022-09-23T04:51:33.689Z,101664.38
2022-09-23T04:54:00.305Z,101656.88
2022-09-23T04:56:29.459Z,101660.31
2022-09-23T04:58:55.796Z,101664.56
2022-09-23T05:01:24.917Z,101648.44
2022-09-23T05:03:53.988Z,101662.28
2022-09-23T05:06:21.434Z,101654.66
2022-09-23T05:08:51.422Z,101652.53
2022-09-23T05:11:18.476Z,101649.13
2022-09-23T05:13:48.716Z,101659.72
2022-09-23T05:16:15.945Z,101646.88
2022-09-23T05:18:43.634Z,101662.34
2022-09-23T05:21:11.445Z,101649.66
2022-09-23T05:23:39.031Z,101635.00
2022-09-23T05:26:07.758Z,101646.56
2022-09-23T05:28:34.805Z,101651.78
2022-09-23T05:31:22.987Z,101657.34
2022-09-23T05:33:55.461Z,101651.00
2022-09-23T05:36:22.369Z,101637.97
2022-09-23T05:38:49.956Z,101652.00
2022-09-23T05:41:18.750Z,101654.09
2022-09-23T05:43:45.078Z,101653.78
2022-09-23T05:46:12.354Z,101645.00
2022-09-23T05:48:39.904Z,101667.00
2022-09-23T05:51:08.478Z,101666.34
2022-09-23T05:53:34.879Z,101663.19
2022-09-23T05:56:01.471Z,101652.41
2022-09-23T05:58:27.805Z,101657.41
2022-09-23T06:00:54.298Z,101662.88
2022-09-23T06:03:21.181Z,101651.59
2022-09-23T06:05:47.790Z,101662.16
2022-09-23T06:08:14.786Z,101663.13
2022-09-23T06:10:44.132Z,101653.94
2022-09-23T06:13:11.235Z,101653.63
2022-09-23T06:15:38.746Z,101653.63
2022-09-23T06:18:06.318Z,101649.91
2022-09-23T06:20:33.973Z,101654.09
2022-09-23T06:23:10.907Z,101658.97
2022-09-23T06:25:38.298Z,101652.94
2022-09-23T06:28:05.023Z,101651.94
2022-09-23T06:30:31.316Z,101650.00
2022-09-23T06:32:58.135Z,101650.97
2022-09-23T06:35:27.746Z,101655.78
2022-09-23T06:37:55.134Z,101662.94
2022-09-23T06:40:22.601Z,101665.84
2022-09-23T06:42:56.730Z,101649.19
2022-09-23T06:45:23.114Z,101663.00
2022-09-23T06:47:53.658Z,101671.25
2022-09-23T06:50:19.967Z,101661.06
2022-09-23T06:52:54.445Z,101656.94
2022-09-23T06:55:20.722Z,101651.75
2022-09-23T06:57:47.025Z,101636.88
2022-09-23T07:00:13.792Z,101657.34
2022-09-23T07:02:41.179Z,101655.41
2022-09-23T07:05:08.525Z,101667.22
2022-09-23T07:07:35.090Z,101658.47
2022-09-23T07:10:01.395Z,101661.19
2022-09-23T07:12:27.702Z,101654.78
2022-09-23T07:14:54.039Z,101662.38
2022-09-23T07:17:20.339Z,101669.16
2022-09-23T07:19:46.645Z,101662.19
2022-09-23T07:22:12.954Z,101667.31
2022-09-23T07:24:39.259Z,101657.94
2022-09-23T07:27:05.623Z,101669.38
2022-09-23T07:29:43.776Z,101670.13
2022-09-23T07:32:14.536Z,101662.59
2022-09-23T07:34:41.087Z,101660.75
2022-09-23T07:37:07.382Z,101654.84
2022-09-23T07:39:33.676Z,101660.69
2022-09-23T07:42:00.005Z,101659.06
2022-09-23T07:44:26.314Z,101659.78
2022-09-23T07:46:52.670Z,101661.56
2022-09-23T07:49:19.031Z,101659.44
2022-09-23T07:51:45.335Z,101653.72
2022-09-23T07:54:14.824Z,101658.28
2022-09-23T07:56:42.638Z,101655.72
2022-09-23T07:59:12.565Z,101656.03
2022-09-23T08:01:43.839Z,101652.00
2022-09-23T08:04:14.390Z,101655.19
2022-09-23T08:06:41.974Z,101653.25
2022-09-23T08:09:08.422Z,101652.50
2022-09-23T08:11:34.901Z,101658.06
2022-09-23T08:14:01.193Z,101646.72
2022-09-23T08:16:27.570Z,101652.41
2022-09-23T08:18:54.006Z,101644.66
2022-09-23T08:21:21.791Z,101651.59
2022-09-23T08:23:48.517Z,101648.63
2022-09-23T08:26:20.725Z,101659.03
2022-09-23T08:28:48.805Z,101662.72
2022-09-23T08:31:15.220Z,101656.09
2022-09-23T08:33:41.650Z,101648.69
2022-09-23T08:36:08.148Z,101661.72
2022-09-23T08:38:34.491Z,101657.53
2022-09-23T08:41:27.064Z,101646.38
2022-09-23T08:43:59.585Z,101659.69
2022-09-23T08:46:34.997Z,101649.66
2022-09-23T08:49:02.101Z,101657.56
2022-09-23T08:51:35.614Z,101661.88
2022-09-23T08:54:02.178Z,101662.22
2022-09-23T08:56:29.287Z,101661.44
2022-09-23T08:58:58.690Z,101656.75
2022-09-23T09:01:37.024Z,101650.72
2022-09-23T09:04:18.339Z,101636.91
2022-09-23T09:06:54.000Z,101645.88
2022-09-23T09:09:26.915Z,101651.31
2022-09-23T09:12:01.464Z,101644.97
2022-09-23T09:14:37.097Z,101641.59
2022-09-23T09:17:09.385Z,101646.41
2022-09-23T09:19:54.996Z,101646.66
2022-09-23T09:25:33.427Z,101628.16
2022-09-23T09:28:01.303Z,101639.00
2022-09-23T09:30:28.223Z,101639.13
2022-09-23T09:33:01.439Z,101631.94
2022-09-23T09:35:40.491Z,101624.59
2022-09-23T09:38:07.288Z,101628.41
2022-09-23T09:40:34.401Z,101636.06
2022-09-23T09:43:02.287Z,101635.97
2022-09-23T09:45:57.272Z,101629.59
2022-09-23T09:48:32.614Z,101631.50
2022-09-23T09:51:17.698Z,101622.91
2022-09-23T09:53:44.066Z,101628.78
2022-09-23T09:56:15.898Z,101616.69
2022-09-23T09:58:49.648Z,101614.88
2022-09-23T10:01:28.477Z,101613.00
2022-09-23T10:03:59.150Z,101601.38
2022-09-23T10:06:28.934Z,101612.88
2022-09-23T10:09:01.127Z,101619.91
2022-09-23T10:11:28.819Z,101619.09
2022-09-23T10:14:15.446Z,101618.50
2022-09-23T10:16:41.805Z,101606.53
2022-09-23T10:19:13.497Z,101604.47
2022-09-23T10:21:40.046Z,101613.59
2022-09-23T10:24:07.611Z,101602.75
2022-09-23T10:26:42.674Z,101614.44
2022-09-23T10:29:33.679Z,101606.38
2022-09-23T10:32:34.764Z,101604.78
2022-09-23T10:35:12.984Z,101601.78
2022-09-23T10:37:45.887Z,101609.53
2022-09-23T10:40:16.874Z,101600.38
2022-09-23T10:42:54.644Z,101610.66
2022-09-23T10:45:27.951Z,101610.38
2022-09-23T10:48:09.819Z,101608.78
2022-09-23T10:50:38.815Z,101598.22
2022-09-23T10:53:34.091Z,101610.41
2022-09-23T10:56:06.455Z,101604.44
2022-09-23T10:58:51.414Z,101607.53
2022-09-23T11:01:43.629Z,101603.19
2022-09-23T11:04:35.468Z,101599.16
2022-09-23T11:07:27.348Z,101601.47
2022-09-23T11:10:28.918Z,101599.59
2022-09-23T11:13:17.429Z,101598.81
2022-09-23T11:16:24.542Z,101598.22
2022-09-23T11:19:26.091Z,101595.72
2022-09-23T11:22:01.066Z,101586.41
2022-09-23T11:24:30.375Z,101578.91
2022-09-23T11:27:02.326Z,101587.31
2022-09-23T11:29:43.726Z,101585.13
2022-09-23T11:32:41.226Z,101575.44
2022-09-23T11:35:19.387Z,101572.81
2022-09-23T11:37:50.297Z,101577.31
2022-09-23T11:40:36.220Z,101566.34
2022-09-23T11:43:23.407Z,101576.72
2022-09-23T11:46:18.154Z,101580.97
2022-09-23T11:49:14.110Z,101569.81
2022-09-23T11:51:49.747Z,101577.41
2022-09-23T11:54:22.656Z,101573.25
2022-09-23T11:56:54.448Z,101559.66
2022-09-23T11:59:46.617Z,101573.25
2022-09-23T12:02:25.723Z,101571.41
2022-09-23T12:05:03.554Z,101561.06
2022-09-23T12:07:43.895Z,101555.97
2022-09-23T12:10:11.740Z,101568.28
2022-09-23T12:12:45.073Z,101566.44
2022-09-23T12:15:20.693Z,101550.66
2022-09-23T12:18:13.491Z,101544.09
2022-09-23T12:20:45.873Z,101555.47
2022-09-23T12:23:22.872Z,101543.59
2022-09-23T12:25:54.431Z,101548.84
2022-09-23T12:28:30.607Z,101541.81
2022-09-23T12:31:00.177Z,101552.84
2022-09-23T12:33:32.850Z,101542.34
2022-09-23T12:36:05.112Z,101544.28
2022-09-23T12:38:48.859Z,101540.81
2022-09-23T12:41:26.777Z,101545.00
2022-09-23T12:43:54.551Z,101536.97
2022-09-23T12:46:24.058Z,101535.88
2022-09-23T12:48:56.106Z,101546.34
2022-09-23T12:51:22.817Z,101533.31
2022-09-23T12:53:49.049Z,101528.88
2022-09-23T12:56:23.007Z,101532.66
2022-09-23T12:58:49.266Z,101529.13
2022-09-23T13:01:15.748Z,101527.09
2022-09-23T13:03:46.676Z,101513.81
2022-09-23T13:06:13.161Z,101517.19
2022-09-23T13:08:42.570Z,101516.75
2022-09-23T13:11:23.493Z,101503.63
2022-09-23T13:13:50.703Z,101498.88
2022-09-23T13:16:29.909Z,101492.72
2022-09-23T13:19:01.237Z,101499.06
2022-09-23T13:21:42.471Z,101502.81
2022-09-23T13:24:24.091Z,101504.34
2022-09-23T13:26:53.802Z,101502.56
2022-09-23T13:29:36.556Z,101494.19
2022-09-23T13:32:03.287Z,101484.75
2022-09-23T13:34:33.122Z,101481.91
2022-09-23T13:37:22.784Z,101497.53
2022-09-23T13:39:50.151Z,101493.72
2022-09-23T13:42:26.598Z,101489.00
2022-09-23T13:44:57.650Z,101490.94
2022-09-23T13:47:27.661Z,101489.09
2022-09-23T13:49:54.418Z,101479.22
2022-09-23T13:52:29.609Z,101486.13
2022-09-23T13:54:55.961Z,101473.59
2022-09-23T13:57:31.122Z,101476.91
2022-09-23T14:00:21.285Z,101483.78
2022-09-23T14:02:47.761Z,101478.47
2022-09-23T14:05:22.474Z,101476.56
2022-09-23T14:07:50.090Z,101475.38
2022-09-23T14:10:23.406Z,101469.25
2022-09-23T14:12:52.510Z,101472.47
2022-09-23T14:15:20.370Z,101448.63
2022-09-23T14:17:53.729Z,101470.72
2022-09-23T14:20:22.182Z,101467.44
2022-09-23T14:22:48.593Z,101464.78
2022-09-23T14:25:17.377Z,101460.22
2022-09-23T14:27:44.831Z,101464.44
2022-09-23T14:30:16.059Z,101467.84
2022-09-23T14:32:42.480Z,101452.00
2022-09-23T14:35:24.231Z,101455.00
2022-09-23T14:37:55.144Z,101454.81
2022-09-23T14:40:26.289Z,101449.81
2022-09-23T14:43:20.664Z,101451.09
2022-09-23T14:45:52.702Z,101449.63
2022-09-23T14:48:24.275Z,101445.34
2022-09-23T14:50:59.273Z,101454.28
2022-09-23T14:53:44.896Z,101455.06
2022-09-23T14:56:16.449Z,101434.81
2022-09-23T14:58:53.695Z,101451.34
2022-09-23T15:01:32.762Z,101447.34
2022-09-23T15:04:14.015Z,101444.13
2022-09-23T15:06:45.669Z,101434.31
2022-09-23T15:09:20.416Z,101418.88
2022-09-23T15:11:47.184Z,101434.31
2022-09-23T15:14:36.650Z,101424.75
2022-09-23T15:17:02.415Z,101432.06
2022-09-23T15:19:29.373Z,101422.44
2022-09-23T15:21:56.043Z,101406.63
2022-09-23T15:24:39.893Z,101418.31
2022-09-23T15:27:33.338Z,101418.53
2022-09-23T15:30:15.032Z,101423.28
2022-09-23T15:32:42.352Z,101415.75
2022-09-23T15:35:15.726Z,101418.16
2022-09-23T15:37:44.009Z,101426.84
2022-09-23T15:40:23.048Z,101414.25
2022-09-23T15:42:49.842Z,101428.78
2022-09-23T15:45:16.135Z,101414.34
2022-09-23T15:47:42.453Z,101418.00
2022-09-23T15:50:12.258Z,101412.09
2022-09-23T15:52:38.600Z,101425.03
2022-09-23T15:55:20.907Z,101421.72
2022-09-23T15:57:48.182Z,101417.38
2022-09-23T16:00:14.991Z,101408.75
2022-09-23T16:02:43.977Z,101401.44
2022-09-23T16:05:24.614Z,101408.50
2022-09-23T16:07:50.911Z,101414.88
2022-09-23T16:10:17.365Z,101411.59
2022-09-23T16:12:43.723Z,101406.34
2022-09-23T16:15:21.292Z,101413.72
2022-09-23T16:17:47.615Z,101411.78
2022-09-23T16:20:14.845Z,101402.59
2022-09-23T16:22:41.202Z,101398.81
2022-09-23T16:25:11.777Z,101404.91
2022-09-23T16:27:38.294Z,101397.25
2022-09-23T16:30:05.132Z,101403.13
2022-09-23T16:32:31.435Z,101403.78
2022-09-23T16:34:57.789Z,101400.50
2022-09-23T16:37:24.132Z,101403.13
2022-09-23T16:39:51.033Z,101398.31
2022-09-23T16:42:17.323Z,101396.94
2022-09-23T16:44:43.631Z,101387.47
2022-09-23T16:47:09.943Z,101399.34
2022-09-23T16:49:36.289Z,101397.28
2022-09-23T16:52:02.694Z,101396.13
2022-09-23T16:54:29.007Z,101386.13
2022-09-23T16:56:55.303Z,101383.63
2022-09-23T16:59:21.613Z,101402.13
2022-09-23T17:01:48.010Z,101387.06
2022-09-23T17:04:16.782Z,101397.44
2022-09-23T17:06:44.436Z,101397.28
2022-09-23T17:09:11.589Z,101403.63
2022-09-23T17:11:37.954Z,101392.00
2022-09-23T17:14:05.364Z,101404.22
2022-09-23T17:16:34.311Z,101411.00
2022-09-23T17:19:09.253Z,101410.28
2022-09-23T17:21:35.685Z,101410.16
2022-09-23T17:24:02.276Z,101407.63
2022-09-23T17:26:29.335Z,101412.00
2022-09-23T17:28:57.726Z,101410.25
2022-09-23T17:31:25.137Z,101400.44
2022-09-23T17:33:52.719Z,101413.63
2022-09-23T17:36:20.176Z,101399.13
2022-09-23T17:38:48.198Z,101412.34
2022-09-23T17:41:15.588Z,101411.44
2022-09-23T17:43:41.908Z,101401.41
2022-09-23T17:46:11.410Z,101403.56
2022-09-23T17:48:40.182Z,101403.47
2022-09-23T17:51:13.505Z,101403.09
2022-09-23T17:53:41.548Z,101405.59
2022-09-23T17:56:12.544Z,101404.41
2022-09-23T17:58:39.044Z,101395.22
2022-09-23T18:01:12.551Z,101403.94
2022-09-23T18:03:39.402Z,101406.66
2022-09-23T18:06:17.568Z,101404.69
2022-09-23T18:08:45.426Z,101404.56
2022-09-23T18:11:14.494Z,101403.13
2022-09-23T18:13:40.844Z,101395.91
2022-09-23T18:16:07.400Z,101399.78
2022-09-23T18:18:33.831Z,101393.56
2022-09-23T18:21:04.391Z,101392.03
2022-09-23T18:23:30.769Z,101398.09
2022-09-23T18:25:57.159Z,101409.69
2022-09-23T18:28:23.634Z,101406.47
2022-09-23T18:30:54.621Z,101407.72
2022-09-23T18:33:22.124Z,101408.72
2022-09-23T18:35:48.447Z,101405.13
2022-09-23T18:38:15.049Z,101406.97
2022-09-23T18:40:55.938Z,101410.66
2022-09-23T18:43:25.705Z,101391.44
2022-09-23T18:45:56.998Z,101409.22
2022-09-23T18:48:23.483Z,101412.09
2022-09-23T18:50:49.765Z,101407.63
2022-09-23T18:53:16.093Z,101412.31
2022-09-23T18:55:42.435Z,101413.34
2022-09-23T18:58:08.721Z,101408.06
2022-09-23T19:00:35.244Z,101402.78
2022-09-23T19:03:01.785Z,101402.88
2022-09-23T19:05:28.081Z,101409.53
2022-09-23T19:07:54.390Z,101393.53
2022-09-23T19:10:20.688Z,101400.41
2022-09-23T19:12:47.028Z,101399.69
2022-09-23T19:15:13.367Z,101399.94
2022-09-23T19:17:39.663Z,101396.72
2022-09-23T19:20:06.546Z,101397.59
2022-09-23T19:22:32.846Z,101401.41
2022-09-23T19:24:59.148Z,101384.09
2022-09-23T19:27:25.440Z,101405.72
2022-09-23T19:29:51.741Z,101398.63
2022-09-23T19:32:18.022Z,101407.53
2022-09-23T19:34:44.353Z,101397.28
2022-09-23T19:37:10.634Z,101398.72
2022-09-23T19:39:36.925Z,101399.38
2022-09-23T19:42:03.381Z,101402.44
2022-09-23T19:44:29.664Z,101413.34
2022-09-23T19:46:57.303Z,101402.09
2022-09-23T19:49:24.234Z,101399.44
2022-09-23T19:51:51.071Z,101395.19
2022-09-23T19:54:17.466Z,101409.53
2022-09-23T19:56:43.808Z,101409.75
2022-09-23T19:59:10.257Z,101408.16
2022-09-23T20:01:36.627Z,101405.72
2022-09-23T20:04:03.536Z,101388.78
2022-09-23T20:06:34.486Z,101399.34
2022-09-23T20:09:01.407Z,101384.78
2022-09-23T20:11:29.020Z,101397.31
2022-09-23T20:14:00.823Z,101390.25
2022-09-23T20:16:31.947Z,101390.25
2022-09-23T20:18:59.271Z,101389.41
2022-09-23T20:21:26.231Z,101379.72
2022-09-23T20:23:52.863Z,101388.81
2022-09-23T20:26:19.152Z,101387.22
2022-09-23T20:28:45.806Z,101382.97
2022-09-23T20:31:12.967Z,101385.59
2022-09-23T20:33:39.938Z,101393.72
2022-09-23T20:36:06.330Z,101391.31
2022-09-23T20:38:32.645Z,101383.41
2022-09-23T20:40:58.995Z,101374.53
2022-09-23T20:43:25.699Z,101381.56
2022-09-23T20:45:53.039Z,101378.72
2022-09-23T20:48:23.602Z,101382.38
2022-09-23T20:50:50.458Z,101377.94
2022-09-23T20:53:18.160Z,101373.47
2022-09-23T20:55:55.972Z,101371.41
2022-09-23T20:58:29.487Z,101361.88
2022-09-23T21:01:16.337Z,101359.69
2022-09-23T21:03:45.047Z,101359.72
2022-09-23T21:06:13.526Z,101362.13
2022-09-23T21:08:40.690Z,101363.72
2022-09-23T21:11:11.193Z,101359.03
2022-09-23T21:13:37.743Z,101359.63
2022-09-23T21:16:05.700Z,101354.16
2022-09-23T21:18:32.490Z,101342.22
2022-09-23T21:20:59.892Z,101357.16
2022-09-23T21:23:28.006Z,101351.91
2022-09-23T21:26:08.372Z,101355.94
2022-09-23T21:28:43.039Z,101347.44
2022-09-23T21:31:18.358Z,101352.25
2022-09-23T21:33:44.702Z,101345.00
2022-09-23T21:36:10.981Z,101337.75
2022-09-23T21:38:37.794Z,101350.44
2022-09-23T21:41:07.120Z,101344.34
2022-09-23T21:43:35.437Z,101345.75
2022-09-23T21:46:03.865Z,101350.22
2022-09-23T21:48:34.593Z,101345.75
2022-09-23T21:51:03.807Z,101342.91
2022-09-23T21:53:31.709Z,101342.91
2022-09-23T21:56:03.003Z,101341.09
2022-09-23T21:58:31.063Z,101336.03
2022-09-23T22:00:58.129Z,101329.13
2022-09-23T22:03:25.303Z,101327.31
2022-09-23T22:06:02.574Z,101323.50
2022-09-23T22:08:34.151Z,101335.16
2022-09-23T22:11:05.775Z,101328.50
2022-09-23T22:13:32.146Z,101322.44
2022-09-23T22:16:03.103Z,101336.34
2022-09-23T22:18:29.686Z,101340.22
2022-09-23T22:20:57.828Z,101332.91
2022-09-23T22:23:24.492Z,101325.66
2022-09-23T22:26:00.671Z,101328.28
2022-09-23T22:28:29.203Z,101337.97
2022-09-23T22:30:57.840Z,101332.91
2022-09-23T22:33:24.238Z,101331.06
2022-09-23T22:35:50.543Z,101320.38
2022-09-23T22:38:16.845Z,101328.28
2022-09-23T22:40:43.349Z,101338.16
2022-09-23T22:43:09.920Z,101333.09
2022-09-23T22:45:36.255Z,101333.09
2022-09-23T22:48:04.308Z,101325.06
2022-09-23T22:50:30.597Z,101338.38
2022-09-23T22:52:57.491Z,101329.47
2022-09-23T22:55:23.827Z,101321.38
2022-09-23T22:57:50.357Z,101327.25
2022-09-23T23:00:16.797Z,101332.09
2022-09-23T23:02:43.141Z,101337.38
2022-09-23T23:05:09.626Z,101326.81
2022-09-23T23:07:35.949Z,101324.19
2022-09-23T23:10:02.295Z,101310.25
2022-09-23T23:12:28.601Z,101313.47
2022-09-23T23:14:54.925Z,101320.97
2022-09-23T23:17:21.257Z,101319.34
2022-09-23T23:19:47.566Z,101305.19
2022-09-23T23:22:13.902Z,101319.34
2022-09-23T23:24:40.202Z,101313.28
2022-09-23T23:27:06.491Z,101315.09
2022-09-23T23:29:32.787Z,101311.66
2022-09-23T23:31:59.074Z,101315.31
2022-09-23T23:34:25.440Z,101314.88
2022-09-23T23:36:52.995Z,101316.72
2022-09-23T23:39:19.301Z,101304.59
2022-09-23T23:41:45.648Z,101299.13
2022-09-23T23:44:12.577Z,101286.97
2022-09-23T23:46:38.966Z,101310.84
2022-09-23T23:49:05.370Z,101308.22
2022-09-23T23:51:32.006Z,101299.13
2022-09-23T23:53:59.298Z,101308.22
2022-09-23T23:56:26.606Z,101313.28
2022-09-23T23:58:57.837Z,101309.00
